Time;durP1;ratioP1;P1;durP2;ratioP2;P2;SDS_P1;SDS_P2;PMS_P1;PMS_P2;Temp;Humidity;BMP_temperature;BMP_pressure;BME280_temperature;BME280_humidity;BME280_pressure;Samples;Min_cycle;Max_cycle;Signal;HPM_P1;HPM_P2
2022/09/14 00:00:40;;;;;;;12.77;7.20;;;;;;;;;;5001776;28;20670;-78
2022/09/14 00:03:09;;;;;;;13.97;7.20;;;;;;;;;;4995390;28;20204;-78
2022/09/14 00:05:36;;;;;;;18.57;7.00;;;;;;;;;;4994383;28;20233;-79
2022/09/14 00:08:03;;;;;;;12.80;7.30;;;;;;;;;;4993582;28;20224;-78
2022/09/14 00:10:31;;;;;;;13.13;6.90;;;;;;;;;;4998900;28;20273;-78
2022/09/14 00:12:59;;;;;;;12.20;6.37;;;;;;;;;;4993096;28;20233;-78
2022/09/14 00:15:26;;;;;;;11.90;7.23;;;;;;;;;;4994156;28;20225;-78
2022/09/14 00:17:53;;;;;;;19.53;8.00;;;;;;;;;;4999532;28;20576;-78
2022/09/14 00:20:22;;;;;;;15.73;7.90;;;;;;;;;;4997870;28;20284;-78
2022/09/14 00:22:49;;;;;;;13.97;7.27;;;;;;;;;;4996902;28;20264;-78
2022/09/14 00:25:17;;;;;;;13.77;7.60;;;;;;;;;;4997916;28;20216;-79
2022/09/14 00:27:44;;;;;;;14.00;6.93;;;;;;;;;;4997869;28;20213;-78
2022/09/14 00:30:11;;;;;;;11.13;7.17;;;;;;;;;;4990473;28;21347;-78
2022/09/14 00:32:39;;;;;;;12.20;7.20;;;;;;;;;;4996487;28;20201;-78
2022/09/14 00:35:06;;;;;;;12.70;7.40;;;;;;;;;;4995993;28;20208;-78
2022/09/14 00:37:34;;;;;;;13.73;8.23;;;;;;;;;;4993515;28;20308;-78
2022/09/14 00:40:02;;;;;;;17.20;8.53;;;;;;;;;;4989844;28;20205;-78
2022/09/14 00:42:29;;;;;;;15.07;8.00;;;;;;;;;;4996409;28;20236;-79
2022/09/14 00:45:01;;;;;;;16.10;8.13;;;;;;;;;;4993679;28;20205;-78
2022/09/14 00:47:30;;;;;;;15.50;7.63;;;;;;;;;;4991769;28;20219;-78
2022/09/14 00:49:57;;;;;;;17.00;8.13;;;;;;;;;;4994224;28;20201;-79
2022/09/14 00:52:26;;;;;;;16.10;8.67;;;;;;;;;;4990796;28;20232;-78
2022/09/14 00:54:56;;;;;;;15.23;8.43;;;;;;;;;;4995468;28;20589;-78
2022/09/14 00:57:24;;;;;;;14.10;8.30;;;;;;;;;;4991110;28;20292;-78
2022/09/14 00:59:51;;;;;;;14.47;8.93;;;;;;;;;;4996044;28;20201;-78
2022/09/14 01:02:20;;;;;;;15.30;8.23;;;;;;;;;;4993836;28;20292;-78
2022/09/14 01:04:47;;;;;;;15.17;8.47;;;;;;;;;;4990821;28;20201;-78
2022/09/14 01:07:21;;;;;;;12.77;8.13;;;;;;;;;;4995153;28;20296;-78
2022/09/14 01:09:51;;;;;;;15.97;8.70;;;;;;;;;;4999570;28;20276;-78
2022/09/14 01:12:25;;;;;;;20.83;9.10;;;;;;;;;;4991779;28;20216;-78
2022/09/14 01:14:57;;;;;;;16.93;8.97;;;;;;;;;;4998329;28;20734;-79
2022/09/14 01:17:27;;;;;;;16.67;9.47;;;;;;;;;;4986249;28;20727;-78
2022/09/14 01:20:09;;;;;;;16.13;9.17;;;;;;;;;;4983446;28;20205;-78
2022/09/14 01:22:38;;;;;;;24.43;10.67;;;;;;;;;;4991201;28;20676;-79
2022/09/14 01:25:12;;;;;;;24.37;9.90;;;;;;;;;;4989177;28;20714;-79
2022/09/14 01:27:42;;;;;;;17.90;9.17;;;;;;;;;;4991956;28;20229;-79
2022/09/14 01:30:11;;;;;;;20.00;9.53;;;;;;;;;;4991647;28;20655;-78
2022/09/14 01:32:43;;;;;;;21.00;9.00;;;;;;;;;;4988617;28;20291;-79
2022/09/14 01:35:13;;;;;;;20.90;8.87;;;;;;;;;;4991640;28;20293;-78
2022/09/14 01:37:57;;;;;;;16.23;9.23;;;;;;;;;;4987929;28;20275;-78
2022/09/14 01:40:27;;;;;;;14.57;8.60;;;;;;;;;;4989785;28;20208;-79
2022/09/14 01:43:04;;;;;;;17.30;8.97;;;;;;;;;;4992834;28;20206;-78
2022/09/14 01:45:33;;;;;;;16.13;9.07;;;;;;;;;;4988541;28;20268;-78
2022/09/14 01:48:02;;;;;;;15.73;8.97;;;;;;;;;;4990412;28;20229;-78
2022/09/14 01:50:32;;;;;;;21.20;9.00;;;;;;;;;;4996144;28;20685;-78
2022/09/14 01:53:02;;;;;;;20.83;10.73;;;;;;;;;;4983440;28;20209;-78
2022/09/14 01:55:34;;;;;;;21.40;10.70;;;;;;;;;;4985239;28;20205;-79
2022/09/14 01:58:06;;;;;;;22.57;11.10;;;;;;;;;;4990025;28;20233;-79
2022/09/14 02:00:34;;;;;;;23.90;11.40;;;;;;;;;;4982846;28;20193;-79
2022/09/14 02:03:05;;;;;;;20.60;11.23;;;;;;;;;;4988057;28;20292;-79
2022/09/14 02:05:35;;;;;;;21.27;11.33;;;;;;;;;;4991577;28;20286;-79
2022/09/14 02:08:02;;;;;;;21.97;12.23;;;;;;;;;;4991732;28;20595;-79
2022/09/14 02:10:29;;;;;;;26.40;12.33;;;;;;;;;;4990635;28;20288;-79
2022/09/14 02:12:57;;;;;;;27.00;12.93;;;;;;;;;;4990920;28;20224;-79
2022/09/14 02:15:25;;;;;;;24.90;13.53;;;;;;;;;;4994648;28;20209;-79
2022/09/14 02:17:53;;;;;;;23.87;11.77;;;;;;;;;;4991614;28;20228;-79
2022/09/14 02:20:23;;;;;;;26.33;11.53;;;;;;;;;;4989953;28;20209;-79
2022/09/14 02:22:51;;;;;;;23.90;11.97;;;;;;;;;;4991033;28;20224;-79
2022/09/14 02:25:18;;;;;;;25.13;11.50;;;;;;;;;;4990629;28;20648;-79
2022/09/14 02:27:46;;;;;;;20.13;11.00;;;;;;;;;;4991247;28;20745;-79
2022/09/14 02:30:13;;;;;;;19.73;11.53;;;;;;;;;;4992956;28;20209;-79
2022/09/14 02:32:45;;;;;;;27.60;12.03;;;;;;;;;;4992208;28;20291;-79
2022/09/14 02:35:17;;;;;;;19.47;11.00;;;;;;;;;;4993914;28;20774;-79
2022/09/14 02:37:47;;;;;;;27.83;12.27;;;;;;;;;;4992394;28;20235;-79
2022/09/14 02:40:19;;;;;;;23.07;12.43;;;;;;;;;;4994855;28;20205;-79
2022/09/14 02:42:51;;;;;;;23.57;11.87;;;;;;;;;;4993466;28;20209;-79
2022/09/14 02:45:22;;;;;;;20.57;11.47;;;;;;;;;;4993591;28;20190;-79
2022/09/14 02:47:54;;;;;;;22.47;12.00;;;;;;;;;;4994760;28;20308;-79
2022/09/14 02:50:24;;;;;;;22.07;9.90;;;;;;;;;;4990757;28;20207;-79
2022/09/14 02:52:53;;;;;;;19.87;10.53;;;;;;;;;;4992491;28;20201;-79
2022/09/14 02:55:22;;;;;;;20.43;10.73;;;;;;;;;;4995666;28;20251;-79
2022/09/14 02:58:02;;;;;;;18.90;10.93;;;;;;;;;;4994923;28;20225;-78
2022/09/14 03:00:31;;;;;;;19.57;10.20;;;;;;;;;;4997890;28;20219;-79
2022/09/14 03:02:59;;;;;;;19.43;11.27;;;;;;;;;;4992587;28;20205;-78
2022/09/14 03:05:26;;;;;;;22.80;11.60;;;;;;;;;;4999663;28;20277;-78
2022/09/14 03:07:53;;;;;;;21.40;11.23;;;;;;;;;;4997119;28;20225;-79
2022/09/14 03:10:21;;;;;;;21.90;11.67;;;;;;;;;;5000747;28;20462;-78
2022/09/14 03:12:48;;;;;;;20.13;10.63;;;;;;;;;;5000523;28;20211;-79
2022/09/14 03:15:15;;;;;;;19.53;11.13;;;;;;;;;;4996509;28;20255;-78
2022/09/14 03:17:46;;;;;;;23.67;11.90;;;;;;;;;;4997144;28;20917;-78
2022/09/14 03:20:15;;;;;;;22.23;11.33;;;;;;;;;;4999345;28;20320;-78
2022/09/14 03:22:42;;;;;;;21.37;11.43;;;;;;;;;;4996241;28;20611;-78
2022/09/14 03:25:09;;;;;;;22.13;11.40;;;;;;;;;;4996960;28;20201;-79
2022/09/14 03:27:38;;;;;;;23.27;10.93;;;;;;;;;;4997101;28;20239;-78
2022/09/14 03:30:05;;;;;;;21.37;11.20;;;;;;;;;;4999620;28;20208;-79
2022/09/14 03:32:33;;;;;;;21.57;11.20;;;;;;;;;;4998422;28;20211;-78
2022/09/14 03:35:00;;;;;;;21.60;11.70;;;;;;;;;;4992164;28;20202;-79
2022/09/14 03:37:29;;;;;;;23.83;11.40;;;;;;;;;;4994658;28;20305;-79
2022/09/14 03:39:56;;;;;;;19.77;10.53;;;;;;;;;;4992923;28;20233;-79
2022/09/14 03:42:23;;;;;;;24.63;11.30;;;;;;;;;;4993244;28;20678;-79
2022/09/14 03:44:50;;;;;;;24.07;11.30;;;;;;;;;;4994222;28;20201;-79
2022/09/14 03:47:17;;;;;;;22.87;11.17;;;;;;;;;;4993943;28;20221;-78
2022/09/14 03:49:44;;;;;;;22.10;10.90;;;;;;;;;;4995001;28;20231;-79
2022/09/14 03:52:11;;;;;;;25.60;11.63;;;;;;;;;;4990163;28;20219;-78
2022/09/14 03:54:40;;;;;;;20.57;11.10;;;;;;;;;;4993223;28;20208;-79
2022/09/14 03:57:07;;;;;;;20.80;10.33;;;;;;;;;;4989616;28;20233;-79
2022/09/14 03:59:34;;;;;;;23.37;11.67;;;;;;;;;;4990522;28;20224;-79
2022/09/14 04:02:01;;;;;;;20.90;10.80;;;;;;;;;;4994135;28;20209;-79
2022/09/14 04:04:28;;;;;;;21.87;11.13;;;;;;;;;;4996555;28;20201;-78
2022/09/14 04:06:56;;;;;;;20.63;10.03;;;;;;;;;;4996154;28;20233;-78
2022/09/14 04:09:23;;;;;;;21.80;10.40;;;;;;;;;;4993452;28;20200;-79
2022/09/14 04:11:51;;;;;;;17.27;9.40;;;;;;;;;;4991519;28;20324;-78
2022/09/14 04:14:18;;;;;;;19.90;9.67;;;;;;;;;;4993472;28;20212;-78
2022/09/14 04:16:46;;;;;;;18.47;9.00;;;;;;;;;;4992575;28;20335;-78
2022/09/14 04:19:13;;;;;;;19.53;9.20;;;;;;;;;;4992020;28;20231;-79
2022/09/14 04:21:40;;;;;;;18.63;9.57;;;;;;;;;;4990033;28;20783;-78
2022/09/14 04:24:08;;;;;;;18.83;9.33;;;;;;;;;;4992063;28;20215;-79
2022/09/14 04:26:35;;;;;;;17.33;9.57;;;;;;;;;;4987843;28;20212;-78
2022/09/14 04:29:04;;;;;;;23.80;10.00;;;;;;;;;;4986775;28;20200;-79
2022/09/14 04:31:31;;;;;;;22.23;10.77;;;;;;;;;;4989789;28;20610;-79
2022/09/14 04:33:59;;;;;;;21.03;11.00;;;;;;;;;;4990982;28;20209;-79
2022/09/14 04:36:29;;;;;;;22.40;12.13;;;;;;;;;;4986111;28;20307;-79
2022/09/14 04:38:57;;;;;;;28.57;11.63;;;;;;;;;;4988950;28;20228;-78
2022/09/14 04:41:25;;;;;;;21.40;10.90;;;;;;;;;;4991860;28;20312;-79
2022/09/14 04:43:52;;;;;;;17.80;9.60;;;;;;;;;;4988729;28;20205;-79
2022/09/14 04:46:22;;;;;;;18.27;8.93;;;;;;;;;;4989112;28;20206;-79
2022/09/14 04:48:49;;;;;;;16.37;9.03;;;;;;;;;;4988404;28;20193;-78
2022/09/14 04:51:17;;;;;;;17.07;8.73;;;;;;;;;;4988415;28;20197;-79
2022/09/14 04:53:45;;;;;;;17.27;9.30;;;;;;;;;;4991752;28;20213;-79
2022/09/14 04:56:13;;;;;;;21.27;10.03;;;;;;;;;;4994860;28;20201;-79
2022/09/14 04:58:42;;;;;;;21.37;9.57;;;;;;;;;;4993004;28;20226;-79
2022/09/14 05:01:10;;;;;;;21.53;9.57;;;;;;;;;;4990028;28;20215;-79
2022/09/14 05:03:39;;;;;;;18.50;9.47;;;;;;;;;;4989470;28;20212;-79
2022/09/14 05:06:08;;;;;;;15.77;8.97;;;;;;;;;;4989356;28;20212;-78
2022/09/14 05:08:37;;;;;;;14.97;8.10;;;;;;;;;;4990045;28;20728;-80
2022/09/14 05:11:05;;;;;;;15.93;7.97;;;;;;;;;;4987136;28;20201;-81
2022/09/14 05:13:32;;;;;;;16.63;7.40;;;;;;;;;;4991700;28;20783;-79
2022/09/14 05:16:05;;;;;;;17.23;8.00;;;;;;;;;;4989960;28;20671;-79
2022/09/14 05:18:32;;;;;;;18.20;8.30;;;;;;;;;;4992335;28;20305;-79
2022/09/14 05:21:02;;;;;;;16.67;9.03;;;;;;;;;;4990920;28;20205;-80
2022/09/14 05:23:29;;;;;;;20.27;9.30;;;;;;;;;;4991122;28;20212;-79
2022/09/14 05:25:57;;;;;;;17.17;9.43;;;;;;;;;;4992201;28;20207;-79
2022/09/14 05:28:24;;;;;;;16.37;8.83;;;;;;;;;;4991776;28;20224;-80
2022/09/14 05:30:51;;;;;;;18.67;9.50;;;;;;;;;;4993813;28;20198;-79
2022/09/14 05:33:18;;;;;;;23.07;10.80;;;;;;;;;;4989349;28;20639;-78
2022/09/14 05:35:45;;;;;;;19.53;10.27;;;;;;;;;;4989780;28;20201;-80
2022/09/14 05:38:14;;;;;;;19.07;9.70;;;;;;;;;;4998482;28;20312;-79
2022/09/14 05:40:41;;;;;;;22.00;10.20;;;;;;;;;;4994323;28;20229;-79
2022/09/14 05:43:09;;;;;;;19.17;9.30;;;;;;;;;;4992588;28;20205;-80
2022/09/14 05:45:36;;;;;;;15.43;9.33;;;;;;;;;;4995420;28;20280;-80
2022/09/14 05:48:04;;;;;;;15.03;7.63;;;;;;;;;;4993558;28;20225;-80
2022/09/14 05:50:31;;;;;;;18.10;9.43;;;;;;;;;;4995030;28;20205;-79
2022/09/14 05:52:58;;;;;;;17.43;8.67;;;;;;;;;;5000193;28;20664;-80
2022/09/14 05:55:27;;;;;;;15.07;7.70;;;;;;;;;;4997738;28;21094;-79
2022/09/14 05:57:54;;;;;;;14.57;7.50;;;;;;;;;;4992513;28;20217;-79
2022/09/14 06:00:21;;;;;;;16.23;8.03;;;;;;;;;;5000310;28;20231;-79
2022/09/14 06:02:49;;;;;;;16.57;8.03;;;;;;;;;;4995641;28;20284;-79
2022/09/14 06:05:16;;;;;;;14.80;7.83;;;;;;;;;;4995551;28;20216;-80
2022/09/14 06:07:44;;;;;;;12.33;6.97;;;;;;;;;;4999760;28;20238;-80
2022/09/14 06:10:11;;;;;;;13.83;6.70;;;;;;;;;;4999519;28;20209;-79
2022/09/14 06:12:40;;;;;;;11.67;6.57;;;;;;;;;;5001301;28;20206;-81
2022/09/14 06:15:08;;;;;;;10.70;6.80;;;;;;;;;;4998234;28;20273;-80
2022/09/14 06:17:35;;;;;;;11.10;6.57;;;;;;;;;;5001234;28;20360;-80
2022/09/14 06:20:02;;;;;;;11.10;6.60;;;;;;;;;;5002295;28;20231;-81
2022/09/14 06:22:29;;;;;;;11.10;6.03;;;;;;;;;;5002530;28;20213;-82
2022/09/14 06:24:56;;;;;;;14.67;7.17;;;;;;;;;;5002235;28;20212;-83
2022/09/14 06:27:24;;;;;;;12.33;6.80;;;;;;;;;;5008267;28;20225;-79
2022/09/14 06:29:53;;;;;;;12.33;5.30;;;;;;;;;;4982093;28;20203;-80
2022/09/14 06:32:22;;;;;;;9.57;5.57;;;;;;;;;;4991998;28;20213;-77
2022/09/14 06:34:49;;;;;;;15.00;5.57;;;;;;;;;;4995499;28;20685;-78
2022/09/14 06:37:16;;;;;;;16.47;5.30;;;;;;;;;;4990978;28;20225;-78
2022/09/14 06:39:43;;;;;;;10.43;4.50;;;;;;;;;;4993681;28;20343;-79
2022/09/14 06:42:10;;;;;;;8.63;4.07;;;;;;;;;;4992150;28;20216;-78
2022/09/14 06:44:38;;;;;;;10.07;4.70;;;;;;;;;;4992910;28;20201;-78
2022/09/14 06:47:06;;;;;;;12.40;5.27;;;;;;;;;;4992207;28;20236;-79
2022/09/14 06:49:33;;;;;;;11.10;4.83;;;;;;;;;;4988328;28;20209;-80
2022/09/14 06:52:00;;;;;;;6.87;3.80;;;;;;;;;;4995726;28;20216;-78
2022/09/14 06:54:28;;;;;;;11.63;5.83;;;;;;;;;;4985964;28;20212;-79
2022/09/14 06:56:55;;;;;;;12.40;5.90;;;;;;;;;;4991118;28;20300;-78
2022/09/14 06:59:22;;;;;;;11.77;6.37;;;;;;;;;;4997518;28;20235;-79
2022/09/14 07:01:49;;;;;;;13.30;7.13;;;;;;;;;;5000908;28;20320;-80
2022/09/14 07:04:18;;;;;;;11.40;6.57;;;;;;;;;;4993374;28;20297;-80
2022/09/14 07:06:46;;;;;;;13.43;6.50;;;;;;;;;;4995113;28;20233;-79
2022/09/14 07:09:13;;;;;;;13.20;6.00;;;;;;;;;;4997179;28;20215;-78
2022/09/14 07:11:41;;;;;;;9.80;5.57;;;;;;;;;;4997564;28;20205;-79
2022/09/14 07:14:08;;;;;;;11.93;5.57;;;;;;;;;;4998096;28;20359;-78
2022/09/14 07:16:37;;;;;;;8.23;5.33;;;;;;;;;;4996526;28;20288;-78
2022/09/14 07:19:04;;;;;;;8.27;4.60;;;;;;;;;;4997606;28;20213;-78
2022/09/14 07:21:33;;;;;;;9.47;5.30;;;;;;;;;;4994280;28;20231;-79
2022/09/14 07:24:01;;;;;;;8.33;4.77;;;;;;;;;;5001414;28;20215;-81
2022/09/14 07:26:29;;;;;;;7.40;4.73;;;;;;;;;;4995356;28;20205;-78
2022/09/14 07:28:57;;;;;;;9.50;5.23;;;;;;;;;;4999712;28;20213;-77
2022/09/14 07:31:25;;;;;;;6.13;3.60;;;;;;;;;;4998562;28;20245;-78
2022/09/14 07:33:53;;;;;;;8.43;4.90;;;;;;;;;;4999733;28;20248;-78
2022/09/14 07:36:20;;;;;;;12.20;5.37;;;;;;;;;;4999136;28;20223;-78
2022/09/14 07:38:49;;;;;;;8.30;4.67;;;;;;;;;;5001610;28;20264;-79
2022/09/14 07:41:17;;;;;;;8.40;4.77;;;;;;;;;;5002632;28;20235;-78
2022/09/14 07:43:44;;;;;;;6.27;3.27;;;;;;;;;;4997643;28;20301;-81
2022/09/14 07:46:11;;;;;;;4.93;3.27;;;;;;;;;;4996567;28;20213;-78
2022/09/14 07:48:38;;;;;;;7.60;4.10;;;;;;;;;;4997082;28;20232;-80
2022/09/14 07:51:06;;;;;;;4.57;3.40;;;;;;;;;;4999686;28;20277;-81
2022/09/14 07:53:37;;;;;;;6.00;3.00;;;;;;;;;;4995667;28;20212;-77
2022/09/14 07:56:06;;;;;;;5.10;2.90;;;;;;;;;;4994179;28;20982;-79
2022/09/14 07:58:33;;;;;;;3.77;2.47;;;;;;;;;;4991238;28;20221;-77
2022/09/14 08:01:01;;;;;;;3.03;2.00;;;;;;;;;;4994622;28;20305;-77
2022/09/14 08:03:28;;;;;;;3.23;2.17;;;;;;;;;;4994445;28;20259;-80
2022/09/14 08:06:01;;;;;;;3.10;2.10;;;;;;;;;;5000273;28;20220;-80
2022/09/14 08:08:29;;;;;;;5.80;2.27;;;;;;;;;;4998945;28;20227;-80
2022/09/14 08:10:58;;;;;;;4.40;2.70;;;;;;;;;;4994674;28;20213;-79
2022/09/14 08:13:26;;;;;;;5.23;2.80;;;;;;;;;;4997512;28;20267;-78
2022/09/14 08:15:54;;;;;;;6.60;3.60;;;;;;;;;;4992710;28;20213;-78
2022/09/14 08:18:21;;;;;;;4.07;2.77;;;;;;;;;;4992889;28;20233;-81
2022/09/14 08:20:48;;;;;;;4.43;2.73;;;;;;;;;;4988747;28;20231;-78
2022/09/14 08:23:15;;;;;;;12.30;3.57;;;;;;;;;;4996494;28;20212;-78
2022/09/14 08:25:42;;;;;;;5.20;3.53;;;;;;;;;;4995369;28;20212;-77
2022/09/14 08:28:09;;;;;;;7.87;3.67;;;;;;;;;;4992923;28;20229;-78
2022/09/14 08:30:38;;;;;;;5.90;3.57;;;;;;;;;;4996526;28;20662;-80
2022/09/14 08:33:05;;;;;;;7.07;4.17;;;;;;;;;;4999870;28;20204;-78
2022/09/14 08:35:32;;;;;;;6.60;3.77;;;;;;;;;;4997081;28;20208;-77
2022/09/14 08:37:59;;;;;;;5.30;3.90;;;;;;;;;;4997720;28;20810;-80
2022/09/14 08:40:26;;;;;;;6.63;4.23;;;;;;;;;;4994357;28;20225;-78
2022/09/14 08:42:56;;;;;;;8.23;4.60;;;;;;;;;;4995495;28;20284;-78
2022/09/14 08:45:23;;;;;;;7.33;4.90;;;;;;;;;;4995502;28;20211;-79
2022/09/14 08:47:53;;;;;;;6.17;4.30;;;;;;;;;;4996298;28;20252;-79
2022/09/14 08:50:21;;;;;;;11.30;4.80;;;;;;;;;;4993814;28;20209;-79
2022/09/14 08:52:51;;;;;;;7.73;4.50;;;;;;;;;;4995011;28;20274;-79
2022/09/14 08:55:30;;;;;;;8.40;4.90;;;;;;;;;;5002198;28;20645;-80
2022/09/14 08:58:00;;;;;;;8.33;4.73;;;;;;;;;;4995825;28;20260;-80
2022/09/14 09:00:32;;;;;;;5.07;3.40;;;;;;;;;;4993454;28;20312;-80
2022/09/14 09:03:07;;;;;;;5.93;3.30;;;;;;;;;;4988255;28;20216;-77
2022/09/14 09:05:37;;;;;;;4.43;3.20;;;;;;;;;;4996165;28;20295;-78
2022/09/14 09:08:09;;;;;;;4.20;2.87;;;;;;;;;;4991509;28;20235;-78
2022/09/14 09:10:38;;;;;;;4.37;2.83;;;;;;;;;;4999239;28;20275;-80
2022/09/14 09:13:06;;;;;;;4.50;3.23;;;;;;;;;;4994625;28;20205;-78
2022/09/14 09:15:35;;;;;;;4.77;3.17;;;;;;;;;;4993138;28;20201;-79
2022/09/14 09:18:07;;;;;;;6.37;3.33;;;;;;;;;;4997021;28;20236;-78
2022/09/14 09:20:37;;;;;;;4.60;3.27;;;;;;;;;;4993309;28;20725;-80
2022/09/14 09:23:07;;;;;;;4.07;2.67;;;;;;;;;;4991828;28;20216;-80
2022/09/14 09:25:41;;;;;;;5.27;3.57;;;;;;;;;;4994626;28;20212;-79
2022/09/14 09:28:11;;;;;;;6.47;2.87;;;;;;;;;;4994289;28;20263;-79
2022/09/14 09:30:39;;;;;;;4.80;3.03;;;;;;;;;;4996113;28;20562;-79
2022/09/14 09:33:07;;;;;;;7.47;2.90;;;;;;;;;;4993013;28;20671;-80
2022/09/14 09:35:34;;;;;;;5.90;3.00;;;;;;;;;;4990142;28;20376;-79
2022/09/14 09:38:01;;;;;;;6.77;3.50;;;;;;;;;;4993602;28;20320;-78
2022/09/14 09:40:32;;;;;;;8.23;3.30;;;;;;;;;;4994404;28;20231;-80
2022/09/14 09:43:06;;;;;;;6.53;3.20;;;;;;;;;;4992087;28;20219;-77
2022/09/14 09:45:47;;;;;;;7.90;2.97;;;;;;;;;;4992821;28;20209;-78
2022/09/14 09:48:17;;;;;;;4.90;1.90;;;;;;;;;;4990079;28;20234;-78
2022/09/14 09:50:48;;;;;;;5.67;1.60;;;;;;;;;;4993754;28;20291;-78
2022/09/14 09:53:16;;;;;;;4.40;2.40;;;;;;;;;;4987748;28;20216;-79
2022/09/14 09:55:47;;;;;;;2.97;2.10;;;;;;;;;;4994485;28;20217;-78
2022/09/14 09:58:21;;;;;;;1.63;1.37;;;;;;;;;;4993400;28;20224;-78
2022/09/14 10:00:55;;;;;;;3.57;1.40;;;;;;;;;;4991987;28;20244;-79
2022/09/14 10:03:28;;;;;;;6.10;1.77;;;;;;;;;;4991890;28;20201;-79
2022/09/14 10:06:01;;;;;;;3.97;1.23;;;;;;;;;;4988758;28;20230;-79
2022/09/14 10:08:33;;;;;;;2.77;1.30;;;;;;;;;;4993326;28;20225;-79
2022/09/14 10:11:00;;;;;;;9.97;2.90;;;;;;;;;;4994068;28;20292;-79
2022/09/14 10:13:29;;;;;;;3.30;1.20;;;;;;;;;;4993191;28;20205;-79
2022/09/14 10:16:05;;;;;;;1.67;0.70;;;;;;;;;;4991922;28;20627;-80
2022/09/14 10:18:34;;;;;;;1.63;0.70;;;;;;;;;;4992910;28;20236;-79
2022/09/14 10:21:09;;;;;;;2.40;0.70;;;;;;;;;;4992367;28;20316;-78
2022/09/14 10:23:37;;;;;;;2.63;1.07;;;;;;;;;;4984386;28;20203;-80
2022/09/14 10:26:28;;;;;;;4.00;0.80;;;;;;;;;;4988889;28;20220;-79
2022/09/14 10:29:09;;;;;;;0.67;0.60;;;;;;;;;;4987352;28;20676;-79
2022/09/14 10:31:36;;;;;;;1.60;0.43;;;;;;;;;;4996259;28;20211;-77
2022/09/14 10:34:20;;;;;;;1.23;0.70;;;;;;;;;;4993886;28;20304;-78
2022/09/14 10:36:50;;;;;;;0.73;0.60;;;;;;;;;;4995082;28;20236;-78
2022/09/14 10:39:20;;;;;;;2.57;0.63;;;;;;;;;;4997565;28;20312;-80
2022/09/14 10:41:50;;;;;;;2.00;0.57;;;;;;;;;;5002559;28;20310;-77
2022/09/14 10:44:42;;;;;;;1.53;0.50;;;;;;;;;;4992906;28;20672;-78
2022/09/14 10:47:15;;;;;;;2.93;0.77;;;;;;;;;;4995925;28;20225;-79
2022/09/14 10:49:50;;;;;;;1.53;0.60;;;;;;;;;;4995093;28;20213;-80
2022/09/14 10:52:20;;;;;;;0.93;0.60;;;;;;;;;;4993730;28;20193;-79
2022/09/14 10:55:08;;;;;;;1.43;0.60;;;;;;;;;;4991384;28;20683;-78
2022/09/14 10:57:40;;;;;;;1.30;0.80;;;;;;;;;;4994323;28;20292;-78
2022/09/14 11:00:12;;;;;;;1.93;0.63;;;;;;;;;;4997752;28;20205;-77
2022/09/14 11:02:52;;;;;;;1.90;1.23;;;;;;;;;;4992193;28;20228;-77
2022/09/14 11:08:43;;;;;;;1.80;0.80;;;;;;;;;;4989131;28;20714;-77
2022/09/14 11:11:21;;;;;;;1.23;1.00;;;;;;;;;;4985471;28;20201;-77
2022/09/14 11:20:01;;;;;;;1.33;1.10;;;;;;;;;;4990613;28;20578;-79
2022/09/14 11:22:34;;;;;;;1.63;1.00;;;;;;;;;;4992056;28;20244;-78
2022/09/14 11:25:06;;;;;;;2.00;1.03;;;;;;;;;;4992386;28;20212;-77
2022/09/14 11:27:37;;;;;;;2.63;1.00;;;;;;;;;;4992068;28;20229;-78
2022/09/14 11:33:39;;;;;;;3.93;1.73;;;;;;;;;;4992873;28;20204;-77
2022/09/14 11:36:10;;;;;;;5.80;1.80;;;;;;;;;;4991294;28;20267;-78
2022/09/14 11:38:40;;;;;;;1.90;1.70;;;;;;;;;;4994749;28;20232;-78
2022/09/14 11:41:13;;;;;;;3.57;1.90;;;;;;;;;;4990344;28;20567;-77
2022/09/14 11:43:44;;;;;;;3.80;2.10;;;;;;;;;;4990518;28;20209;-77
2022/09/14 11:46:13;;;;;;;2.70;2.10;;;;;;;;;;4990368;28;20201;-77
2022/09/14 11:48:41;;;;;;;6.10;2.00;;;;;;;;;;4993906;28;20225;-78
2022/09/14 11:51:14;;;;;;;3.53;1.93;;;;;;;;;;4993699;28;20577;-77
2022/09/14 11:53:41;;;;;;;3.63;2.50;;;;;;;;;;4988057;28;20224;-78
2022/09/14 11:56:22;;;;;;;5.07;2.40;;;;;;;;;;4990827;28;20296;-78
2022/09/14 11:58:51;;;;;;;6.67;2.63;;;;;;;;;;4991092;28;20698;-77
2022/09/14 12:01:34;;;;;;;5.10;2.90;;;;;;;;;;4990122;28;20223;-76
2022/09/14 12:04:09;;;;;;;6.10;3.10;;;;;;;;;;4986584;28;20220;-77
2022/09/14 12:06:44;;;;;;;5.60;3.63;;;;;;;;;;4989334;28;20295;-76
2022/09/14 12:09:30;;;;;;;8.50;3.73;;;;;;;;;;4992146;28;20396;-76
2022/09/14 12:11:58;;;;;;;4.97;3.57;;;;;;;;;;4987897;28;20201;-78
2022/09/14 12:14:32;;;;;;;7.67;3.67;;;;;;;;;;4999942;28;20217;-78
2022/09/14 12:17:03;;;;;;;4.90;3.30;;;;;;;;;;4993631;28;20790;-78
2022/09/14 12:19:31;;;;;;;5.87;3.33;;;;;;;;;;4991488;28;20675;-76
2022/09/14 12:22:18;;;;;;;5.27;3.20;;;;;;;;;;4990026;28;20235;-78
2022/09/14 12:24:46;;;;;;;4.93;3.20;;;;;;;;;;4996110;28;20279;-77
2022/09/14 12:27:16;;;;;;;4.97;3.00;;;;;;;;;;4988240;28;20262;-78
2022/09/14 12:29:44;;;;;;;5.50;3.30;;;;;;;;;;4990824;28;20576;-78
2022/09/14 12:32:28;;;;;;;7.70;4.10;;;;;;;;;;4991682;28;20284;-78
2022/09/14 12:35:14;;;;;;;7.03;4.20;;;;;;;;;;4987407;28;20312;-78
2022/09/14 12:37:41;;;;;;;7.33;3.33;;;;;;;;;;4991208;28;20224;-77
2022/09/14 12:40:13;;;;;;;5.07;3.30;;;;;;;;;;4991470;28;20236;-78
2022/09/14 12:42:40;;;;;;;4.37;2.93;;;;;;;;;;4991906;28;20278;-79
2022/09/14 12:45:26;;;;;;;3.57;2.40;;;;;;;;;;4992028;28;20213;-78
2022/09/14 12:47:54;;;;;;;7.50;3.60;;;;;;;;;;4992843;28;20304;-79
2022/09/14 12:50:23;;;;;;;3.97;2.70;;;;;;;;;;4990473;28;20229;-80
2022/09/14 12:53:05;;;;;;;8.63;2.87;;;;;;;;;;4991194;28;20196;-79
2022/09/14 12:55:42;;;;;;;4.13;2.80;;;;;;;;;;4991013;28;20718;-79
2022/09/14 12:58:14;;;;;;;5.70;2.70;;;;;;;;;;4995144;28;20228;-80
2022/09/14 13:00:49;;;;;;;5.07;2.33;;;;;;;;;;4991208;28;20668;-78
2022/09/14 13:03:38;;;;;;;3.17;1.80;;;;;;;;;;4989437;28;20702;-80
2022/09/14 13:06:10;;;;;;;2.97;1.80;;;;;;;;;;4986902;28;20205;-78
2022/09/14 13:08:38;;;;;;;3.10;2.10;;;;;;;;;;4989061;28;20289;-77
2022/09/14 13:11:05;;;;;;;4.07;2.10;;;;;;;;;;4993713;28;20291;-78
2022/09/14 13:13:33;;;;;;;3.43;2.30;;;;;;;;;;4989000;28;20562;-78
2022/09/14 13:16:02;;;;;;;4.07;2.23;;;;;;;;;;4992086;28;20207;-79
2022/09/14 13:18:31;;;;;;;2.97;2.00;;;;;;;;;;4985550;28;20299;-78
2022/09/14 13:21:00;;;;;;;4.77;2.07;;;;;;;;;;4992427;28;20215;-78
2022/09/14 13:23:31;;;;;;;7.43;2.20;;;;;;;;;;4985745;28;20212;-78
2022/09/14 13:25:59;;;;;;;5.13;2.33;;;;;;;;;;4992283;28;20211;-79
2022/09/14 13:28:28;;;;;;;3.50;1.87;;;;;;;;;;4989461;28;20236;-79
2022/09/14 13:30:56;;;;;;;3.63;1.70;;;;;;;;;;4984256;28;20197;-78
2022/09/14 13:33:23;;;;;;;4.07;1.37;;;;;;;;;;4982014;28;20209;-78
2022/09/14 13:35:51;;;;;;;2.90;1.50;;;;;;;;;;4983065;28;20212;-78
2022/09/14 13:38:50;;;;;;;2.57;1.10;;;;;;;;;;4990318;28;20237;-76
2022/09/14 13:41:21;;;;;;;3.50;1.87;;;;;;;;;;4981182;28;20209;-78
2022/09/14 13:43:48;;;;;;;2.93;1.70;;;;;;;;;;4985496;28;20210;-78
2022/09/14 13:46:16;;;;;;;4.20;2.70;;;;;;;;;;4989859;28;20201;-78
2022/09/14 13:48:43;;;;;;;2.50;1.40;;;;;;;;;;4991965;28;20782;-78
2022/09/14 13:51:12;;;;;;;2.30;1.50;;;;;;;;;;4989085;28;20272;-78
2022/09/14 13:53:41;;;;;;;2.90;1.30;;;;;;;;;;4985134;28;20201;-77
2022/09/14 13:56:23;;;;;;;3.47;1.60;;;;;;;;;;4989889;28;20204;-78
2022/09/14 13:58:51;;;;;;;2.70;1.37;;;;;;;;;;4989890;28;20196;-78
2022/09/14 14:01:28;;;;;;;2.47;1.50;;;;;;;;;;4987427;28;20209;-77
2022/09/14 14:03:57;;;;;;;3.23;1.67;;;;;;;;;;4992095;28;20224;-78
2022/09/14 14:06:25;;;;;;;1.83;1.30;;;;;;;;;;4992305;28;20852;-78
2022/09/14 14:08:54;;;;;;;3.77;1.27;;;;;;;;;;4986071;28;20201;-78
2022/09/14 14:11:28;;;;;;;1.30;0.90;;;;;;;;;;4990633;28;20219;-78
2022/09/14 14:13:56;;;;;;;1.97;1.10;;;;;;;;;;4989619;28;21001;-79
2022/09/14 14:16:25;;;;;;;3.70;1.10;;;;;;;;;;4983956;28;20673;-78
2022/09/14 14:18:56;;;;;;;1.30;1.10;;;;;;;;;;4987877;28;20337;-78
2022/09/14 14:21:28;;;;;;;2.27;1.20;;;;;;;;;;4989628;28;20224;-77
2022/09/14 14:24:15;;;;;;;2.60;1.27;;;;;;;;;;4985389;28;20208;-78
2022/09/14 14:26:49;;;;;;;9.87;5.10;;;;;;;;;;4989842;28;20211;-78
2022/09/14 14:29:16;;;;;;;5.70;2.60;;;;;;;;;;4991628;28;20288;-79
2022/09/14 14:31:43;;;;;;;4.80;1.40;;;;;;;;;;4996675;28;20208;-79
2022/09/14 14:34:12;;;;;;;2.67;1.43;;;;;;;;;;4995261;28;20304;-78
2022/09/14 14:36:42;;;;;;;4.33;1.57;;;;;;;;;;4988841;28;20711;-78
2022/09/14 14:39:09;;;;;;;2.03;1.33;;;;;;;;;;4991428;28;20237;-79
2022/09/14 14:41:37;;;;;;;1.50;1.17;;;;;;;;;;4992874;28;20229;-79
2022/09/14 14:44:07;;;;;;;3.07;1.47;;;;;;;;;;4991597;28;20237;-79
2022/09/14 14:46:34;;;;;;;1.80;1.10;;;;;;;;;;4994767;28;20315;-78
2022/09/14 14:49:01;;;;;;;6.70;1.57;;;;;;;;;;4995022;28;20216;-77
2022/09/14 14:51:28;;;;;;;6.27;1.20;;;;;;;;;;4987055;28;20219;-78
2022/09/14 14:53:56;;;;;;;0.83;0.80;;;;;;;;;;4990016;28;20212;-78
2022/09/14 14:56:23;;;;;;;2.23;1.27;;;;;;;;;;4990884;28;20208;-79
2022/09/14 14:58:50;;;;;;;4.47;1.23;;;;;;;;;;4986171;28;20663;-78
2022/09/14 15:01:18;;;;;;;2.67;1.10;;;;;;;;;;4987575;28;20213;-79